sensor_id;sensor_type;location;lat;lon;timestamp;temperature;humidity
26336;DHT22;14047;50.936;4.654;2023-03-03T00:01:41;2.00;99.90
26336;DHT22;14047;50.936;4.654;2023-03-03T00:04:07;2.00;99.90
26336;DHT22;14047;50.936;4.654;2023-03-03T00:06:34;2.00;99.90
26336;DHT22;14047;50.936;4.654;2023-03-03T00:08:59;1.90;99.90
26336;DHT22;14047;50.936;4.654;2023-03-03T00:11:26;1.90;99.90
26336;DHT22;14047;50.936;4.654;2023-03-03T00:13:54;1.80;99.90
26336;DHT22;14047;50.936;4.654;2023-03-03T00:18:51;1.80;99.90
26336;DHT22;14047;50.936;4.654;2023-03-03T00:21:40;1.80;99.90
26336;DHT22;14047;50.936;4.654;2023-03-03T00:26:41;1.60;99.90
26336;DHT22;14047;50.936;4.654;2023-03-03T00:29:39;1.50;99.90
26336;DHT22;14047;50.936;4.654;2023-03-03T00:32:17;1.40;99.90
26336;DHT22;14047;50.936;4.654;2023-03-03T00:34:45;1.40;99.90
26336;DHT22;14047;50.936;4.654;2023-03-03T00:37:27;1.40;99.90
26336;DHT22;14047;50.936;4.654;2023-03-03T00:40:10;1.50;99.90
26336;DHT22;14047;50.936;4.654;2023-03-03T00:42:38;1.70;99.90
26336;DHT22;14047;50.936;4.654;2023-03-03T00:45:21;1.70;99.90
26336;DHT22;14047;50.936;4.654;2023-03-03T00:47:48;1.70;99.90
26336;DHT22;14047;50.936;4.654;2023-03-03T00:50:25;1.70;99.90
26336;DHT22;14047;50.936;4.654;2023-03-03T00:53:00;1.60;99.90
26336;DHT22;14047;50.936;4.654;2023-03-03T00:55:29;1.70;99.90
26336;DHT22;14047;50.936;4.654;2023-03-03T00:57:56;1.60;99.90
26336;DHT22;14047;50.936;4.654;2023-03-03T01:00:28;1.50;99.90
26336;DHT22;14047;50.936;4.654;2023-03-03T01:02:54;1.40;99.90
26336;DHT22;14047;50.936;4.654;2023-03-03T01:05:21;1.50;99.90
26336;DHT22;14047;50.936;4.654;2023-03-03T01:07:47;1.60;99.90
26336;DHT22;14047;50.936;4.654;2023-03-03T01:10:13;1.50;99.90
26336;DHT22;14047;50.936;4.654;2023-03-03T01:12:40;1.30;99.90
26336;DHT22;14047;50.936;4.654;2023-03-03T01:15:08;1.40;99.90
26336;DHT22;14047;50.936;4.654;2023-03-03T01:17:35;1.30;99.90
26336;DHT22;14047;50.936;4.654;2023-03-03T01:20:01;1.30;99.90
26336;DHT22;14047;50.936;4.654;2023-03-03T01:22:28;1.30;99.90
26336;DHT22;14047;50.936;4.654;2023-03-03T01:24:53;1.40;99.90
26336;DHT22;14047;50.936;4.654;2023-03-03T01:27:21;1.60;99.90
26336;DHT22;14047;50.936;4.654;2023-03-03T01:29:47;1.50;99.90
26336;DHT22;14047;50.936;4.654;2023-03-03T01:32:13;1.50;99.90
26336;DHT22;14047;50.936;4.654;2023-03-03T01:34:39;1.50;99.90
26336;DHT22;14047;50.936;4.654;2023-03-03T01:37:05;1.40;99.90
26336;DHT22;14047;50.936;4.654;2023-03-03T01:39:31;1.50;99.90
26336;DHT22;14047;50.936;4.654;2023-03-03T01:41:57;1.50;99.90
26336;DHT22;14047;50.936;4.654;2023-03-03T01:44:23;1.50;99.90
26336;DHT22;14047;50.936;4.654;2023-03-03T01:46:53;1.40;99.90
26336;DHT22;14047;50.936;4.654;2023-03-03T01:49:36;1.40;99.90
26336;DHT22;14047;50.936;4.654;2023-03-03T01:52:20;1.40;99.90
26336;DHT22;14047;50.936;4.654;2023-03-03T01:54:50;1.60;99.90
26336;DHT22;14047;50.936;4.654;2023-03-03T01:57:25;1.70;99.90
26336;DHT22;14047;50.936;4.654;2023-03-03T01:59:54;1.60;99.90
26336;DHT22;14047;50.936;4.654;2023-03-03T02:02:23;1.50;99.90
26336;DHT22;14047;50.936;4.654;2023-03-03T02:04:50;1.60;99.90
26336;DHT22;14047;50.936;4.654;2023-03-03T02:07:16;1.50;99.90
26336;DHT22;14047;50.936;4.654;2023-03-03T02:09:57;1.60;99.90
26336;DHT22;14047;50.936;4.654;2023-03-03T02:12:47;1.70;99.90
26336;DHT22;14047;50.936;4.654;2023-03-03T02:15:20;1.50;99.90
26336;DHT22;14047;50.936;4.654;2023-03-03T02:17:48;1.50;99.90
26336;DHT22;14047;50.936;4.654;2023-03-03T02:20:24;1.60;99.90
26336;DHT22;14047;50.936;4.654;2023-03-03T02:28:29;1.70;99.90
26336;DHT22;14047;50.936;4.654;2023-03-03T02:30:59;1.70;99.90
26336;DHT22;14047;50.936;4.654;2023-03-03T02:33:25;1.50;99.90
26336;DHT22;14047;50.936;4.654;2023-03-03T02:35:52;1.50;99.90
26336;DHT22;14047;50.936;4.654;2023-03-03T02:38:29;1.50;99.90
26336;DHT22;14047;50.936;4.654;2023-03-03T02:43:30;1.40;99.90
26336;DHT22;14047;50.936;4.654;2023-03-03T02:45:58;1.40;99.90
26336;DHT22;14047;50.936;4.654;2023-03-03T02:48:24;1.50;99.90
26336;DHT22;14047;50.936;4.654;2023-03-03T02:50:50;1.60;99.90
26336;DHT22;14047;50.936;4.654;2023-03-03T02:53:16;1.60;99.90
26336;DHT22;14047;50.936;4.654;2023-03-03T02:55:42;1.60;99.90
26336;DHT22;14047;50.936;4.654;2023-03-03T02:58:08;1.60;99.90
26336;DHT22;14047;50.936;4.654;2023-03-03T03:00:35;1.60;99.90
26336;DHT22;14047;50.936;4.654;2023-03-03T03:03:01;1.60;99.90
26336;DHT22;14047;50.936;4.654;2023-03-03T03:05:27;1.60;99.90
26336;DHT22;14047;50.936;4.654;2023-03-03T03:07:54;1.60;99.90
26336;DHT22;14047;50.936;4.654;2023-03-03T03:10:20;1.70;99.90
26336;DHT22;14047;50.936;4.654;2023-03-03T03:12:46;1.70;99.90
26336;DHT22;14047;50.936;4.654;2023-03-03T03:15:13;1.70;99.90
26336;DHT22;14047;50.936;4.654;2023-03-03T03:17:40;1.60;99.90
26336;DHT22;14047;50.936;4.654;2023-03-03T03:20:08;1.40;99.90
26336;DHT22;14047;50.936;4.654;2023-03-03T03:22:34;1.30;99.90
26336;DHT22;14047;50.936;4.654;2023-03-03T03:25:01;1.10;99.90
26336;DHT22;14047;50.936;4.654;2023-03-03T03:27:27;1.00;99.90
26336;DHT22;14047;50.936;4.654;2023-03-03T03:29:53;1.40;99.90
26336;DHT22;14047;50.936;4.654;2023-03-03T03:32:19;1.60;99.90
26336;DHT22;14047;50.936;4.654;2023-03-03T03:34:45;1.50;99.90
26336;DHT22;14047;50.936;4.654;2023-03-03T03:37:12;1.50;99.90
26336;DHT22;14047;50.936;4.654;2023-03-03T03:39:38;1.70;99.90
26336;DHT22;14047;50.936;4.654;2023-03-03T03:42:04;1.40;99.90
26336;DHT22;14047;50.936;4.654;2023-03-03T03:44:30;1.10;99.90
26336;DHT22;14047;50.936;4.654;2023-03-03T03:46:56;0.70;99.90
26336;DHT22;14047;50.936;4.654;2023-03-03T03:49:23;0.80;99.90
26336;DHT22;14047;50.936;4.654;2023-03-03T03:51:52;0.90;99.90
26336;DHT22;14047;50.936;4.654;2023-03-03T03:54:20;0.90;99.90
26336;DHT22;14047;50.936;4.654;2023-03-03T03:56:47;0.90;99.90
26336;DHT22;14047;50.936;4.654;2023-03-03T03:59:13;1.00;99.90
26336;DHT22;14047;50.936;4.654;2023-03-03T04:01:39;1.20;99.90
26336;DHT22;14047;50.936;4.654;2023-03-03T04:04:05;1.40;99.90
26336;DHT22;14047;50.936;4.654;2023-03-03T04:06:31;1.40;99.90
26336;DHT22;14047;50.936;4.654;2023-03-03T04:08:57;1.50;99.90
26336;DHT22;14047;50.936;4.654;2023-03-03T04:11:25;1.60;99.90
26336;DHT22;14047;50.936;4.654;2023-03-03T04:13:51;1.70;99.90
26336;DHT22;14047;50.936;4.654;2023-03-03T04:16:17;1.70;99.90
26336;DHT22;14047;50.936;4.654;2023-03-03T04:18:43;1.70;99.90
26336;DHT22;14047;50.936;4.654;2023-03-03T04:21:13;1.60;99.90
26336;DHT22;14047;50.936;4.654;2023-03-03T04:23:40;1.60;99.90
26336;DHT22;14047;50.936;4.654;2023-03-03T04:26:07;1.50;99.90
26336;DHT22;14047;50.936;4.654;2023-03-03T04:28:33;1.40;99.90
26336;DHT22;14047;50.936;4.654;2023-03-03T04:30:59;1.40;99.90
26336;DHT22;14047;50.936;4.654;2023-03-03T04:33:26;1.40;99.90
26336;DHT22;14047;50.936;4.654;2023-03-03T04:35:53;1.70;99.90
26336;DHT22;14047;50.936;4.654;2023-03-03T04:38:20;1.70;99.90
26336;DHT22;14047;50.936;4.654;2023-03-03T04:40:47;1.50;99.90
26336;DHT22;14047;50.936;4.654;2023-03-03T04:43:16;1.50;99.90
26336;DHT22;14047;50.936;4.654;2023-03-03T04:45:42;1.20;99.90
26336;DHT22;14047;50.936;4.654;2023-03-03T04:48:09;1.30;99.90
26336;DHT22;14047;50.936;4.654;2023-03-03T04:50:35;1.20;99.90
26336;DHT22;14047;50.936;4.654;2023-03-03T04:53:02;1.20;99.90
26336;DHT22;14047;50.936;4.654;2023-03-03T04:55:29;1.10;99.90
26336;DHT22;14047;50.936;4.654;2023-03-03T04:57:55;0.90;99.90
26336;DHT22;14047;50.936;4.654;2023-03-03T05:00:21;0.80;99.90
26336;DHT22;14047;50.936;4.654;2023-03-03T05:02:47;1.00;99.90
26336;DHT22;14047;50.936;4.654;2023-03-03T05:05:15;1.00;99.90
26336;DHT22;14047;50.936;4.654;2023-03-03T05:07:41;1.10;99.90
26336;DHT22;14047;50.936;4.654;2023-03-03T05:10:08;1.30;99.90
26336;DHT22;14047;50.936;4.654;2023-03-03T05:12:34;1.30;99.90
26336;DHT22;14047;50.936;4.654;2023-03-03T05:15:00;1.10;99.90
26336;DHT22;14047;50.936;4.654;2023-03-03T05:17:26;1.00;99.90
26336;DHT22;14047;50.936;4.654;2023-03-03T05:19:53;1.10;99.90
26336;DHT22;14047;50.936;4.654;2023-03-03T05:22:22;0.90;99.90
26336;DHT22;14047;50.936;4.654;2023-03-03T05:24:48;0.90;99.90
26336;DHT22;14047;50.936;4.654;2023-03-03T05:27:15;0.90;99.90
26336;DHT22;14047;50.936;4.654;2023-03-03T05:29:41;0.90;99.90
26336;DHT22;14047;50.936;4.654;2023-03-03T05:32:07;0.80;99.90
26336;DHT22;14047;50.936;4.654;2023-03-03T05:34:33;0.80;99.90
26336;DHT22;14047;50.936;4.654;2023-03-03T05:36:59;0.80;99.90
26336;DHT22;14047;50.936;4.654;2023-03-03T05:39:25;1.00;99.90
26336;DHT22;14047;50.936;4.654;2023-03-03T05:41:52;1.00;99.90
26336;DHT22;14047;50.936;4.654;2023-03-03T05:44:18;1.10;99.90
26336;DHT22;14047;50.936;4.654;2023-03-03T05:46:44;1.30;99.90
26336;DHT22;14047;50.936;4.654;2023-03-03T05:49:11;1.60;99.90
26336;DHT22;14047;50.936;4.654;2023-03-03T05:51:37;1.60;99.90
26336;DHT22;14047;50.936;4.654;2023-03-03T05:54:03;1.20;99.90
26336;DHT22;14047;50.936;4.654;2023-03-03T05:56:29;1.20;99.90
26336;DHT22;14047;50.936;4.654;2023-03-03T05:58:55;1.20;99.90
26336;DHT22;14047;50.936;4.654;2023-03-03T06:01:21;1.00;99.90
26336;DHT22;14047;50.936;4.654;2023-03-03T06:03:47;1.10;99.90
26336;DHT22;14047;50.936;4.654;2023-03-03T06:06:13;1.00;99.90
26336;DHT22;14047;50.936;4.654;2023-03-03T06:08:41;1.00;99.90
26336;DHT22;14047;50.936;4.654;2023-03-03T06:11:07;0.90;99.90
26336;DHT22;14047;50.936;4.654;2023-03-03T06:13:34;0.90;99.90
26336;DHT22;14047;50.936;4.654;2023-03-03T06:15:59;0.80;99.90
26336;DHT22;14047;50.936;4.654;2023-03-03T06:18:25;0.90;99.90
26336;DHT22;14047;50.936;4.654;2023-03-03T06:20:55;0.90;99.90
26336;DHT22;14047;50.936;4.654;2023-03-03T06:23:21;0.80;99.90
26336;DHT22;14047;50.936;4.654;2023-03-03T06:25:47;0.80;99.90
26336;DHT22;14047;50.936;4.654;2023-03-03T06:28:13;0.80;99.90
26336;DHT22;14047;50.936;4.654;2023-03-03T06:30:39;0.80;99.90
26336;DHT22;14047;50.936;4.654;2023-03-03T06:33:05;1.00;99.90
26336;DHT22;14047;50.936;4.654;2023-03-03T06:35:31;1.10;99.90
26336;DHT22;14047;50.936;4.654;2023-03-03T06:37:57;1.10;99.90
26336;DHT22;14047;50.936;4.654;2023-03-03T06:40:23;1.30;99.90
26336;DHT22;14047;50.936;4.654;2023-03-03T06:42:49;1.00;99.90
26336;DHT22;14047;50.936;4.654;2023-03-03T06:45:15;1.10;99.90
26336;DHT22;14047;50.936;4.654;2023-03-03T06:47:41;0.90;99.90
26336;DHT22;14047;50.936;4.654;2023-03-03T06:50:09;1.10;99.90
26336;DHT22;14047;50.936;4.654;2023-03-03T06:52:36;1.10;99.90
26336;DHT22;14047;50.936;4.654;2023-03-03T06:55:14;1.10;99.90
26336;DHT22;14047;50.936;4.654;2023-03-03T06:57:41;1.00;99.90
26336;DHT22;14047;50.936;4.654;2023-03-03T07:00:24;1.10;99.90
26336;DHT22;14047;50.936;4.654;2023-03-03T07:03:06;1.30;99.90
26336;DHT22;14047;50.936;4.654;2023-03-03T07:05:33;1.40;99.90
26336;DHT22;14047;50.936;4.654;2023-03-03T07:07:59;1.40;99.90
26336;DHT22;14047;50.936;4.654;2023-03-03T07:10:27;1.40;99.90
26336;DHT22;14047;50.936;4.654;2023-03-03T07:12:57;1.20;99.90
26336;DHT22;14047;50.936;4.654;2023-03-03T07:15:34;1.20;99.90
26336;DHT22;14047;50.936;4.654;2023-03-03T07:18:00;1.40;99.90
26336;DHT22;14047;50.936;4.654;2023-03-03T07:20:38;1.50;99.90
26336;DHT22;14047;50.936;4.654;2023-03-03T07:23:22;1.30;99.90
26336;DHT22;14047;50.936;4.654;2023-03-03T07:25:48;1.20;99.90
26336;DHT22;14047;50.936;4.654;2023-03-03T07:28:33;1.60;99.90
26336;DHT22;14047;50.936;4.654;2023-03-03T07:30:59;1.90;99.90
26336;DHT22;14047;50.936;4.654;2023-03-03T07:33:27;1.60;99.90
26336;DHT22;14047;50.936;4.654;2023-03-03T07:35:56;1.70;99.90
26336;DHT22;14047;50.936;4.654;2023-03-03T07:38:30;1.70;99.90
26336;DHT22;14047;50.936;4.654;2023-03-03T07:41:01;1.70;99.90
26336;DHT22;14047;50.936;4.654;2023-03-03T07:48:41;1.00;99.90
26336;DHT22;14047;50.936;4.654;2023-03-03T07:53:51;0.90;99.90
26336;DHT22;14047;50.936;4.654;2023-03-03T07:56:29;1.10;99.90
26336;DHT22;14047;50.936;4.654;2023-03-03T07:58:59;1.10;99.90
26336;DHT22;14047;50.936;4.654;2023-03-03T08:06:56;1.20;99.90
26336;DHT22;14047;50.936;4.654;2023-03-03T08:09:49;1.20;99.90
26336;DHT22;14047;50.936;4.654;2023-03-03T08:12:27;1.00;99.90
26336;DHT22;14047;50.936;4.654;2023-03-03T08:14:56;1.00;99.90
26336;DHT22;14047;50.936;4.654;2023-03-03T08:17:25;1.00;99.90
26336;DHT22;14047;50.936;4.654;2023-03-03T08:19:53;1.10;99.90
26336;DHT22;14047;50.936;4.654;2023-03-03T08:22:33;1.00;99.90
26336;DHT22;14047;50.936;4.654;2023-03-03T08:25:01;1.10;99.90
26336;DHT22;14047;50.936;4.654;2023-03-03T08:27:27;1.40;99.90
26336;DHT22;14047;50.936;4.654;2023-03-03T08:29:53;1.70;99.90
26336;DHT22;14047;50.936;4.654;2023-03-03T08:32:19;1.70;99.90
26336;DHT22;14047;50.936;4.654;2023-03-03T08:34:45;1.60;99.90
26336;DHT22;14047;50.936;4.654;2023-03-03T08:37:11;1.40;99.90
26336;DHT22;14047;50.936;4.654;2023-03-03T08:39:37;1.50;99.90
26336;DHT22;14047;50.936;4.654;2023-03-03T08:42:03;1.40;99.90
26336;DHT22;14047;50.936;4.654;2023-03-03T08:44:29;1.60;99.90
26336;DHT22;14047;50.936;4.654;2023-03-03T08:46:55;1.40;99.90
26336;DHT22;14047;50.936;4.654;2023-03-03T08:49:21;1.50;99.90
26336;DHT22;14047;50.936;4.654;2023-03-03T08:51:47;1.30;99.90
26336;DHT22;14047;50.936;4.654;2023-03-03T08:54:13;1.40;99.90
26336;DHT22;14047;50.936;4.654;2023-03-03T08:56:39;1.60;99.90
26336;DHT22;14047;50.936;4.654;2023-03-03T08:59:05;1.50;99.90
26336;DHT22;14047;50.936;4.654;2023-03-03T09:01:31;1.50;99.90
26336;DHT22;14047;50.936;4.654;2023-03-03T09:03:58;1.40;99.90
26336;DHT22;14047;50.936;4.654;2023-03-03T09:06:24;1.40;99.90
26336;DHT22;14047;50.936;4.654;2023-03-03T09:08:50;1.70;99.90
26336;DHT22;14047;50.936;4.654;2023-03-03T09:11:24;1.80;99.90
26336;DHT22;14047;50.936;4.654;2023-03-03T09:14:03;2.10;99.90
26336;DHT22;14047;50.936;4.654;2023-03-03T09:16:36;2.50;99.90
26336;DHT22;14047;50.936;4.654;2023-03-03T09:21:45;2.30;99.90
26336;DHT22;14047;50.936;4.654;2023-03-03T09:24:22;2.10;99.90
26336;DHT22;14047;50.936;4.654;2023-03-03T09:26:49;2.20;99.90
26336;DHT22;14047;50.936;4.654;2023-03-03T09:29:29;2.50;99.90
26336;DHT22;14047;50.936;4.654;2023-03-03T09:31:56;2.70;99.90
26336;DHT22;14047;50.936;4.654;2023-03-03T09:34:40;2.90;99.90
26336;DHT22;14047;50.936;4.654;2023-03-03T09:37:20;2.70;99.90
26336;DHT22;14047;50.936;4.654;2023-03-03T09:39:52;2.60;99.90
26336;DHT22;14047;50.936;4.654;2023-03-03T09:42:28;2.90;99.90
26336;DHT22;14047;50.936;4.654;2023-03-03T09:47:58;3.10;99.90
26336;DHT22;14047;50.936;4.654;2023-03-03T09:54:45;3.60;99.90
26336;DHT22;14047;50.936;4.654;2023-03-03T09:57:18;3.40;99.90
26336;DHT22;14047;50.936;4.654;2023-03-03T10:05:43;3.90;99.90
26336;DHT22;14047;50.936;4.654;2023-03-03T10:08:23;3.80;99.90
26336;DHT22;14047;50.936;4.654;2023-03-03T10:11:03;4.10;99.90
26336;DHT22;14047;50.936;4.654;2023-03-03T10:19:00;3.30;99.90
26336;DHT22;14047;50.936;4.654;2023-03-03T10:27:16;3.80;99.90
26336;DHT22;14047;50.936;4.654;2023-03-03T10:30:00;4.00;99.90
26336;DHT22;14047;50.936;4.654;2023-03-03T10:35:29;4.50;99.90
26336;DHT22;14047;50.936;4.654;2023-03-03T11:14:21;5.20;99.90
26336;DHT22;14047;50.936;4.654;2023-03-03T11:17:03;5.30;99.90
26336;DHT22;14047;50.936;4.654;2023-03-03T11:30:42;5.90;99.90
26336;DHT22;14047;50.936;4.654;2023-03-03T11:33:11;6.20;99.90
26336;DHT22;14047;50.936;4.654;2023-03-03T11:35:50;6.10;99.90
26336;DHT22;14047;50.936;4.654;2023-03-03T11:38:33;6.50;99.90
26336;DHT22;14047;50.936;4.654;2023-03-03T11:41:19;6.90;99.90
26336;DHT22;14047;50.936;4.654;2023-03-03T11:43:53;7.30;99.90
26336;DHT22;14047;50.936;4.654;2023-03-03T11:46:45;7.40;99.90
26336;DHT22;14047;50.936;4.654;2023-03-03T11:49:24;6.10;99.90
26336;DHT22;14047;50.936;4.654;2023-03-03T11:55:00;7.00;99.90
26336;DHT22;14047;50.936;4.654;2023-03-03T11:57:49;6.70;99.90
26336;DHT22;14047;50.936;4.654;2023-03-03T12:06:16;7.20;99.90
26336;DHT22;14047;50.936;4.654;2023-03-03T12:26:13;6.20;99.90
26336;DHT22;14047;50.936;4.654;2023-03-03T12:31:42;5.70;99.90
26336;DHT22;14047;50.936;4.654;2023-03-03T12:42:33;7.00;99.90
26336;DHT22;14047;50.936;4.654;2023-03-03T12:47:50;6.50;99.90
26336;DHT22;14047;50.936;4.654;2023-03-03T12:53:12;5.90;99.90
26336;DHT22;14047;50.936;4.654;2023-03-03T12:56:02;6.00;99.90
26336;DHT22;14047;50.936;4.654;2023-03-03T13:01:44;5.60;99.90
26336;DHT22;14047;50.936;4.654;2023-03-03T13:04:42;5.90;99.90
26336;DHT22;14047;50.936;4.654;2023-03-03T13:07:18;6.40;99.90
26336;DHT22;14047;50.936;4.654;2023-03-03T13:12:33;5.80;99.90
26336;DHT22;14047;50.936;4.654;2023-03-03T13:23:03;5.80;99.90
26336;DHT22;14047;50.936;4.654;2023-03-03T13:28:30;6.00;99.90
26336;DHT22;14047;50.936;4.654;2023-03-03T13:31:04;6.10;99.90
26336;DHT22;14047;50.936;4.654;2023-03-03T13:33:34;6.60;99.90
26336;DHT22;14047;50.936;4.654;2023-03-03T13:36:08;6.80;99.90
26336;DHT22;14047;50.936;4.654;2023-03-03T13:38:39;7.10;99.90
26336;DHT22;14047;50.936;4.654;2023-03-03T13:51:47;7.00;99.90
26336;DHT22;14047;50.936;4.654;2023-03-03T14:03:06;6.70;99.90
26336;DHT22;14047;50.936;4.654;2023-03-03T14:05:37;6.50;99.90
26336;DHT22;14047;50.936;4.654;2023-03-03T14:11:06;6.30;99.90
26336;DHT22;14047;50.936;4.654;2023-03-03T14:16:50;6.40;99.90
26336;DHT22;14047;50.936;4.654;2023-03-03T14:19:46;6.50;99.90
26336;DHT22;14047;50.936;4.654;2023-03-03T14:22:44;6.60;99.90
26336;DHT22;14047;50.936;4.654;2023-03-03T14:25:13;6.60;99.90
26336;DHT22;14047;50.936;4.654;2023-03-03T14:39:15;7.20;99.90
26336;DHT22;14047;50.936;4.654;2023-03-03T14:41:22;7.20;99.90
26336;DHT22;14047;50.936;4.654;2023-03-03T14:44:00;7.40;99.90
26336;DHT22;14047;50.936;4.654;2023-03-03T14:48:56;7.60;99.90
26336;DHT22;14047;50.936;4.654;2023-03-03T14:51:41;7.50;99.90
26336;DHT22;14047;50.936;4.654;2023-03-03T14:54:15;7.50;99.90
26336;DHT22;14047;50.936;4.654;2023-03-03T14:57:01;7.40;99.90
26336;DHT22;14047;50.936;4.654;2023-03-03T14:59:29;7.50;99.90
26336;DHT22;14047;50.936;4.654;2023-03-03T15:04:40;8.00;99.90
26336;DHT22;14047;50.936;4.654;2023-03-03T15:07:34;8.20;99.90
26336;DHT22;14047;50.936;4.654;2023-03-03T15:10:02;8.30;99.90
26336;DHT22;14047;50.936;4.654;2023-03-03T15:20:42;8.00;99.90
26336;DHT22;14047;50.936;4.654;2023-03-03T15:28:35;8.20;99.90
26336;DHT22;14047;50.936;4.654;2023-03-03T15:31:27;8.30;99.90
26336;DHT22;14047;50.936;4.654;2023-03-03T15:34:08;8.10;99.90
26336;DHT22;14047;50.936;4.654;2023-03-03T15:37:11;7.80;99.90
26336;DHT22;14047;50.936;4.654;2023-03-03T15:40:02;7.90;99.90
26336;DHT22;14047;50.936;4.654;2023-03-03T15:45:33;8.00;99.90
26336;DHT22;14047;50.936;4.654;2023-03-03T16:04:39;8.80;99.90
26336;DHT22;14047;50.936;4.654;2023-03-03T16:07:32;8.60;99.90
26336;DHT22;14047;50.936;4.654;2023-03-03T16:26:12;7.90;99.90
26336;DHT22;14047;50.936;4.654;2023-03-03T16:31:27;8.20;99.90
26336;DHT22;14047;50.936;4.654;2023-03-03T16:34:02;8.60;99.90
26336;DHT22;14047;50.936;4.654;2023-03-03T16:39:36;8.50;99.90
26336;DHT22;14047;50.936;4.654;2023-03-03T16:42:21;9.30;99.90
26336;DHT22;14047;50.936;4.654;2023-03-03T16:45:31;9.60;99.90
26336;DHT22;14047;50.936;4.654;2023-03-03T16:48:18;8.60;99.90
26336;DHT22;14047;50.936;4.654;2023-03-03T16:54:03;8.60;99.90
26336;DHT22;14047;50.936;4.654;2023-03-03T17:02:09;8.50;99.90
26336;DHT22;14047;50.936;4.654;2023-03-03T17:05:11;8.50;99.90
26336;DHT22;14047;50.936;4.654;2023-03-03T17:10:30;8.30;99.90
26336;DHT22;14047;50.936;4.654;2023-03-03T17:15:55;8.50;99.90
26336;DHT22;14047;50.936;4.654;2023-03-03T17:21:35;8.50;99.90
26336;DHT22;14047;50.936;4.654;2023-03-03T17:29:54;8.30;99.90
26336;DHT22;14047;50.936;4.654;2023-03-03T17:32:47;8.30;99.90
26336;DHT22;14047;50.936;4.654;2023-03-03T17:35:22;8.20;99.90
26336;DHT22;14047;50.936;4.654;2023-03-03T17:38:33;8.30;99.90
26336;DHT22;14047;50.936;4.654;2023-03-03T17:41:10;8.30;99.90
26336;DHT22;14047;50.936;4.654;2023-03-03T17:46:32;8.10;99.90
26336;DHT22;14047;50.936;4.654;2023-03-03T17:49:13;8.00;99.90
26336;DHT22;14047;50.936;4.654;2023-03-03T18:03:23;8.10;99.90
26336;DHT22;14047;50.936;4.654;2023-03-03T18:11:33;7.80;99.90
26336;DHT22;14047;50.936;4.654;2023-03-03T18:17:37;7.90;99.90
26336;DHT22;14047;50.936;4.654;2023-03-03T18:22:49;8.00;99.90
26336;DHT22;14047;50.936;4.654;2023-03-03T18:25:17;7.90;99.90
26336;DHT22;14047;50.936;4.654;2023-03-03T18:31:01;7.30;99.90
26336;DHT22;14047;50.936;4.654;2023-03-03T18:38:54;7.60;99.90
26336;DHT22;14047;50.936;4.654;2023-03-03T18:41:33;7.60;99.90
26336;DHT22;14047;50.936;4.654;2023-03-03T18:44:28;7.70;99.90
26336;DHT22;14047;50.936;4.654;2023-03-03T18:46:55;7.80;99.90
26336;DHT22;14047;50.936;4.654;2023-03-03T18:50:00;7.90;99.90
26336;DHT22;14047;50.936;4.654;2023-03-03T18:52:30;7.80;99.90
26336;DHT22;14047;50.936;4.654;2023-03-03T18:57:28;8.00;99.90
26336;DHT22;14047;50.936;4.654;2023-03-03T19:00:14;7.90;99.90
26336;DHT22;14047;50.936;4.654;2023-03-03T19:02:51;7.90;99.90
26336;DHT22;14047;50.936;4.654;2023-03-03T19:05:35;8.00;99.90
26336;DHT22;14047;50.936;4.654;2023-03-03T19:08:51;8.10;99.90
26336;DHT22;14047;50.936;4.654;2023-03-03T19:11:49;8.20;99.90
26336;DHT22;14047;50.936;4.654;2023-03-03T19:14:28;7.90;99.90
26336;DHT22;14047;50.936;4.654;2023-03-03T19:16:57;8.00;99.90
26336;DHT22;14047;50.936;4.654;2023-03-03T19:19:31;8.00;99.90
26336;DHT22;14047;50.936;4.654;2023-03-03T19:25:24;8.10;99.90
26336;DHT22;14047;50.936;4.654;2023-03-03T19:31:05;7.90;99.90
26336;DHT22;14047;50.936;4.654;2023-03-03T19:33:51;7.60;99.90
26336;DHT22;14047;50.936;4.654;2023-03-03T19:36:28;7.40;99.90
26336;DHT22;14047;50.936;4.654;2023-03-03T19:44:51;7.50;99.90
26336;DHT22;14047;50.936;4.654;2023-03-03T19:47:41;7.20;99.90
26336;DHT22;14047;50.936;4.654;2023-03-03T19:50:52;7.20;99.90
26336;DHT22;14047;50.936;4.654;2023-03-03T20:09:52;7.00;99.90
26336;DHT22;14047;50.936;4.654;2023-03-03T20:15:18;7.10;99.90
26336;DHT22;14047;50.936;4.654;2023-03-03T20:26:48;6.70;99.90
26336;DHT22;14047;50.936;4.654;2023-03-03T20:40:28;6.70;99.90
26336;DHT22;14047;50.936;4.654;2023-03-03T20:43:18;6.80;99.90
26336;DHT22;14047;50.936;4.654;2023-03-03T20:53:42;6.80;99.90
26336;DHT22;14047;50.936;4.654;2023-03-03T20:56:59;6.80;99.90
26336;DHT22;14047;50.936;4.654;2023-03-03T21:05:17;6.70;99.90
26336;DHT22;14047;50.936;4.654;2023-03-03T21:08:01;6.80;99.90
26336;DHT22;14047;50.936;4.654;2023-03-03T21:10:32;6.80;99.90
26336;DHT22;14047;50.936;4.654;2023-03-03T21:13:24;6.90;99.90
26336;DHT22;14047;50.936;4.654;2023-03-03T21:15:59;6.90;99.90
26336;DHT22;14047;50.936;4.654;2023-03-03T21:18:26;7.00;99.90
26336;DHT22;14047;50.936;4.654;2023-03-03T21:20:52;7.00;99.90
26336;DHT22;14047;50.936;4.654;2023-03-03T21:23:18;7.10;99.90
26336;DHT22;14047;50.936;4.654;2023-03-03T21:26:09;7.30;99.90
26336;DHT22;14047;50.936;4.654;2023-03-03T21:28:35;7.30;99.90
26336;DHT22;14047;50.936;4.654;2023-03-03T21:39:28;6.90;99.90
26336;DHT22;14047;50.936;4.654;2023-03-03T21:44:30;6.70;99.90
26336;DHT22;14047;50.936;4.654;2023-03-03T21:46:57;6.80;99.90
26336;DHT22;14047;50.936;4.654;2023-03-03T21:49:23;6.80;99.90
26336;DHT22;14047;50.936;4.654;2023-03-03T21:51:51;6.80;99.90
26336;DHT22;14047;50.936;4.654;2023-03-03T21:54:17;6.60;99.90
26336;DHT22;14047;50.936;4.654;2023-03-03T21:56:43;6.60;99.90
26336;DHT22;14047;50.936;4.654;2023-03-03T21:59:09;6.70;99.90
26336;DHT22;14047;50.936;4.654;2023-03-03T22:01:35;6.80;99.90
26336;DHT22;14047;50.936;4.654;2023-03-03T22:04:01;6.70;99.90
26336;DHT22;14047;50.936;4.654;2023-03-03T22:06:28;6.60;99.90
26336;DHT22;14047;50.936;4.654;2023-03-03T22:08:54;6.50;99.90
26336;DHT22;14047;50.936;4.654;2023-03-03T22:11:20;6.30;99.90
26336;DHT22;14047;50.936;4.654;2023-03-03T22:13:46;6.30;99.90
26336;DHT22;14047;50.936;4.654;2023-03-03T22:16:12;6.40;99.90
26336;DHT22;14047;50.936;4.654;2023-03-03T22:18:38;6.40;99.90
26336;DHT22;14047;50.936;4.654;2023-03-03T22:21:04;6.50;99.90
26336;DHT22;14047;50.936;4.654;2023-03-03T22:23:40;6.50;99.90
26336;DHT22;14047;50.936;4.654;2023-03-03T22:26:07;6.40;99.90
26336;DHT22;14047;50.936;4.654;2023-03-03T22:28:33;6.40;99.90
26336;DHT22;14047;50.936;4.654;2023-03-03T22:31:01;6.20;99.90
26336;DHT22;14047;50.936;4.654;2023-03-03T22:33:27;6.40;99.90
26336;DHT22;14047;50.936;4.654;2023-03-03T22:35:54;6.50;99.90
26336;DHT22;14047;50.936;4.654;2023-03-03T22:38:20;6.50;99.90
26336;DHT22;14047;50.936;4.654;2023-03-03T22:40:48;6.60;99.90
26336;DHT22;14047;50.936;4.654;2023-03-03T22:43:14;6.40;99.90
26336;DHT22;14047;50.936;4.654;2023-03-03T22:45:40;6.60;99.90
26336;DHT22;14047;50.936;4.654;2023-03-03T22:48:06;6.70;99.90
26336;DHT22;14047;50.936;4.654;2023-03-03T22:50:32;6.60;99.90
26336;DHT22;14047;50.936;4.654;2023-03-03T22:53:05;6.40;99.90